createdAt,value
2019-04-16T00:00:53.873Z,1015.54
2019-04-16T00:01:53.782Z,1015.54
2019-04-16T00:02:53.783Z,1015.49
2019-04-16T00:03:54.815Z,1015.53
2019-04-16T00:04:56.585Z,1015.51
2019-04-16T00:05:53.464Z,1015.46
2019-04-16T00:06:53.474Z,1015.50
2019-04-16T00:07:53.533Z,1015.50
2019-04-16T00:08:54.133Z,1015.47
2019-04-16T00:09:53.111Z,1015.50
2019-04-16T00:10:53.021Z,1015.46
2019-04-16T00:11:52.989Z,1015.50
2019-04-16T00:12:52.874Z,1015.46
2019-04-16T00:13:52.801Z,1015.45
2019-04-16T00:14:52.684Z,1015.43
2019-04-16T00:15:52.600Z,1015.43
2019-04-16T00:16:54.562Z,1015.40
2019-04-16T00:17:52.447Z,1015.41
2019-04-16T00:18:58.041Z,1015.40
2019-04-16T00:19:52.330Z,1015.41
2019-04-16T00:20:52.184Z,1015.35
2019-04-16T00:21:52.095Z,1015.35
2019-04-16T00:22:55.558Z,1015.33
2019-04-16T00:23:51.925Z,1015.34
2019-04-16T00:24:51.841Z,1015.36
2019-04-16T00:25:52.055Z,1015.35
2019-04-16T00:26:51.670Z,1015.33
2019-04-16T00:27:51.702Z,1015.29
2019-04-16T00:28:51.503Z,1015.29
2019-04-16T00:29:51.479Z,1015.26
2019-04-16T00:30:51.331Z,1015.29
2019-04-16T00:31:51.249Z,1015.26
2019-04-16T00:32:51.226Z,1015.29
2019-04-16T00:33:51.082Z,1015.24
2019-04-16T00:34:51.005Z,1015.21
2019-04-16T00:35:51.006Z,1015.24
2019-04-16T00:36:50.841Z,1015.21
2019-04-16T00:37:51.637Z,1015.19
2019-04-16T00:38:53.844Z,1015.21
2019-04-16T00:39:50.646Z,1015.21
2019-04-16T00:40:50.485Z,1015.17
2019-04-16T00:41:50.416Z,1015.19
2019-04-16T00:42:50.342Z,1015.14
2019-04-16T00:43:50.345Z,1015.14
2019-04-16T00:44:50.150Z,1015.15
2019-04-16T00:45:50.062Z,1015.14
2019-04-16T00:46:49.981Z,1015.17
2019-04-16T00:47:51.410Z,1015.17
2019-04-16T00:48:49.824Z,1015.16
2019-04-16T00:49:49.725Z,1015.14
2019-04-16T00:50:49.681Z,1015.15
2019-04-16T00:51:49.552Z,1015.12
2019-04-16T00:52:49.490Z,1015.14
2019-04-16T00:53:49.397Z,1015.11
2019-04-16T00:54:49.418Z,1015.09
2019-04-16T00:55:49.217Z,1015.08
2019-04-16T00:56:49.136Z,1015.08
2019-04-16T00:57:51.160Z,1015.11
2019-04-16T00:58:49.335Z,1015.05
2019-04-16T00:59:48.881Z,1015.07
2019-04-16T01:00:48.825Z,1015.10
2019-04-16T01:01:48.709Z,1015.08
2019-04-16T01:02:48.631Z,1015.09
2019-04-16T01:03:48.548Z,1015.08
2019-04-16T01:04:49.466Z,1015.07
2019-04-16T01:05:48.371Z,1015.07
2019-04-16T01:06:48.280Z,1015.07
2019-04-16T01:07:48.193Z,1015.05
2019-04-16T01:08:54.597Z,1015.03
2019-04-16T01:09:48.025Z,1015.04
2019-04-16T01:10:47.939Z,1015.05
2019-04-16T01:11:49.018Z,1015.06
2019-04-16T01:12:47.881Z,1015.00
2019-04-16T01:13:47.699Z,1015.02
2019-04-16T01:14:47.690Z,1014.96
2019-04-16T01:15:47.516Z,1014.97
2019-04-16T01:16:47.497Z,1014.96
2019-04-16T01:17:47.348Z,1014.97
2019-04-16T01:18:47.345Z,1014.98
2019-04-16T01:19:47.172Z,1014.92
2019-04-16T01:20:47.120Z,1014.99
2019-04-16T01:21:47.008Z,1014.95
2019-04-16T01:22:47.538Z,1014.93
2019-04-16T01:23:49.350Z,1014.96
2019-04-16T01:24:51.387Z,1014.92
2019-04-16T01:25:46.666Z,1014.93
2019-04-16T01:26:46.579Z,1014.92
2019-04-16T01:27:47.635Z,1014.92
2019-04-16T01:28:46.428Z,1014.91
2019-04-16T01:29:46.333Z,1014.90
2019-04-16T01:30:46.268Z,1014.90
2019-04-16T01:31:46.163Z,1014.88
2019-04-16T01:32:46.187Z,1014.85
2019-04-16T01:33:46.736Z,1014.85
2019-04-16T01:34:47.127Z,1014.85
2019-04-16T01:35:51.205Z,1014.86
2019-04-16T01:36:45.726Z,1014.84
2019-04-16T01:37:45.702Z,1014.85
2019-04-16T01:38:45.577Z,1014.79
2019-04-16T01:39:47.598Z,1014.76
2019-04-16T01:40:47.386Z,1014.80
2019-04-16T01:41:45.302Z,1014.76
2019-04-16T01:42:45.327Z,1014.80
2019-04-16T01:43:45.148Z,1014.74
2019-04-16T01:44:53.019Z,1014.72
2019-04-16T01:45:44.960Z,1014.76
2019-04-16T01:46:44.874Z,1014.71
2019-04-16T01:47:44.850Z,1014.70
2019-04-16T01:48:44.717Z,1014.69
2019-04-16T01:49:44.622Z,1014.70
2019-04-16T01:50:51.525Z,1014.66
2019-04-16T01:51:44.695Z,1014.68
2019-04-16T01:52:44.362Z,1014.68
2019-04-16T01:53:44.319Z,1014.62
2019-04-16T01:54:44.198Z,1014.67
2019-04-16T01:55:44.199Z,1014.66
2019-04-16T01:56:44.026Z,1014.63
2019-04-16T01:57:43.938Z,1014.66
2019-04-16T01:58:43.889Z,1014.61
2019-04-16T01:59:43.811Z,1014.60
2019-04-16T02:00:43.678Z,1014.59
2019-04-16T02:01:44.245Z,1014.58
2019-04-16T02:02:46.366Z,1014.54
2019-04-16T02:03:43.422Z,1014.56
2019-04-16T02:04:43.463Z,1014.55
2019-04-16T02:05:43.249Z,1014.52
2019-04-16T02:06:43.176Z,1014.54
2019-04-16T02:07:43.146Z,1014.53
2019-04-16T02:08:42.993Z,1014.51
2019-04-16T02:09:42.927Z,1014.54
2019-04-16T02:10:42.862Z,1014.54
2019-04-16T02:11:42.741Z,1014.49
2019-04-16T02:12:43.893Z,1014.51
2019-04-16T02:13:45.834Z,1014.53
2019-04-16T02:14:42.496Z,1014.50
2019-04-16T02:15:42.485Z,1014.50
2019-04-16T02:16:42.316Z,1014.53
2019-04-16T02:17:42.223Z,1014.50
2019-04-16T02:18:42.198Z,1014.49
2019-04-16T02:19:42.068Z,1014.49
2019-04-16T02:20:41.969Z,1014.47
2019-04-16T02:21:42.119Z,1014.43
2019-04-16T02:22:42.335Z,1014.43
2019-04-16T02:23:41.829Z,1014.42
2019-04-16T02:24:41.669Z,1014.43
2019-04-16T02:25:51.366Z,1014.42
2019-04-16T02:26:41.457Z,1014.43
2019-04-16T02:27:41.439Z,1014.41
2019-04-16T02:28:41.282Z,1014.39
2019-04-16T02:29:41.284Z,1014.37
2019-04-16T02:30:41.121Z,1014.41
2019-04-16T02:31:43.117Z,1014.39
2019-04-16T02:32:40.936Z,1014.38
2019-04-16T02:33:40.861Z,1014.36
2019-04-16T02:34:40.807Z,1014.38
2019-04-16T02:35:40.685Z,1014.35
2019-04-16T02:36:40.599Z,1014.39
2019-04-16T02:37:42.545Z,1014.35
2019-04-16T02:38:46.482Z,1014.36
2019-04-16T02:39:49.086Z,1014.38
2019-04-16T02:40:40.254Z,1014.36
2019-04-16T02:41:40.210Z,1014.38
2019-04-16T02:42:40.082Z,1014.40
2019-04-16T02:43:41.213Z,1014.38
2019-04-16T02:44:39.954Z,1014.38
2019-04-16T02:45:39.829Z,1014.40
2019-04-16T02:46:39.741Z,1014.38
2019-04-16T02:47:42.186Z,1014.34
2019-04-16T02:48:39.591Z,1014.39
2019-04-16T02:49:39.511Z,1014.37
2019-04-16T02:50:39.402Z,1014.35
2019-04-16T02:51:41.210Z,1014.37
2019-04-16T02:52:39.226Z,1014.38
2019-04-16T02:53:39.167Z,1014.39
2019-04-16T02:54:39.070Z,1014.41
2019-04-16T02:55:42.607Z,1014.37
2019-04-16T02:56:38.880Z,1014.33
2019-04-16T02:57:38.794Z,1014.37
2019-04-16T02:58:38.788Z,1014.35
2019-04-16T02:59:42.643Z,1014.40
2019-04-16T03:00:38.541Z,1014.32
2019-04-16T03:01:38.512Z,1014.38
2019-04-16T03:02:38.372Z,1014.40
2019-04-16T03:03:38.325Z,1014.35
2019-04-16T03:04:38.220Z,1014.34
2019-04-16T03:05:38.226Z,1014.34
2019-04-16T03:06:38.020Z,1014.32
2019-04-16T03:07:38.029Z,1014.33
2019-04-16T03:08:37.851Z,1014.28
2019-04-16T03:09:40.235Z,1014.25
2019-04-16T03:10:37.695Z,1014.30
2019-04-16T03:11:37.651Z,1014.30
2019-04-16T03:12:37.506Z,1014.27
2019-04-16T03:13:37.419Z,1014.28
2019-04-16T03:14:37.360Z,1014.25
2019-04-16T03:15:37.264Z,1014.23
2019-04-16T03:16:38.080Z,1014.29
2019-04-16T03:17:39.560Z,1014.26
2019-04-16T03:18:36.994Z,1014.22
2019-04-16T03:19:38.901Z,1014.23
2019-04-16T03:20:36.846Z,1014.24
2019-04-16T03:21:36.795Z,1014.22
2019-04-16T03:22:36.645Z,1014.21
2019-04-16T03:24:12.547Z,1014.21
2019-04-16T03:24:37.486Z,1014.17
2019-04-16T03:25:36.404Z,1014.22
2019-04-16T03:26:36.419Z,1014.16
2019-04-16T03:27:36.224Z,1014.18
2019-04-16T03:28:36.135Z,1014.17
2019-04-16T03:29:37.159Z,1014.16
2019-04-16T03:30:42.242Z,1014.20
2019-04-16T03:31:35.881Z,1014.16
2019-04-16T03:32:36.292Z,1014.17
2019-04-16T03:33:35.725Z,1014.18
2019-04-16T03:34:35.615Z,1014.17
2019-04-16T03:35:36.621Z,1014.15
2019-04-16T03:36:35.446Z,1014.13
2019-04-16T03:37:35.370Z,1014.14
2019-04-16T03:38:37.374Z,1014.15
2019-04-16T03:39:35.214Z,1014.15
2019-04-16T03:40:35.221Z,1014.15
2019-04-16T03:41:35.013Z,1014.13
2019-04-16T03:42:34.995Z,1014.09
2019-04-16T03:43:34.841Z,1014.09
2019-04-16T03:44:37.213Z,1014.07
2019-04-16T03:45:37.617Z,1014.09
2019-04-16T03:46:34.586Z,1014.01
2019-04-16T03:47:34.503Z,1014.05
2019-04-16T03:48:34.430Z,1014.04
2019-04-16T03:49:34.428Z,1014.05
2019-04-16T03:50:34.267Z,1014.04
2019-04-16T03:51:35.646Z,1014.02
2019-04-16T03:52:37.511Z,1014.02
2019-04-16T03:53:33.996Z,1014.05
2019-04-16T03:54:33.896Z,1014.03
2019-04-16T03:55:33.888Z,1014.02
2019-04-16T03:56:33.750Z,1014.03
2019-04-16T03:57:33.892Z,1014.01
2019-04-16T03:58:40.533Z,1014.03
2019-04-16T03:59:33.461Z,1014.00
2019-04-16T04:00:33.407Z,1013.99
2019-04-16T04:01:33.290Z,1014.00
2019-04-16T04:02:33.289Z,1013.96
2019-04-16T04:03:33.123Z,1013.96
2019-04-16T04:04:33.044Z,1013.97
2019-04-16T04:05:34.955Z,1013.94
2019-04-16T04:06:32.858Z,1013.97
2019-04-16T04:07:32.801Z,1013.95
2019-04-16T04:08:32.698Z,1013.96
2019-04-16T04:09:32.606Z,1013.95
2019-04-16T04:10:36.835Z,1013.96
2019-04-16T04:11:32.429Z,1013.96
2019-04-16T04:12:32.439Z,1013.96
2019-04-16T04:13:32.253Z,1013.98
2019-04-16T04:14:32.247Z,1013.93
2019-04-16T04:15:32.115Z,1013.94
2019-04-16T04:16:33.542Z,1013.94
2019-04-16T04:17:31.905Z,1013.97
2019-04-16T04:18:31.824Z,1013.98
2019-04-16T04:19:31.769Z,1013.95
2019-04-16T04:20:31.676Z,1013.99
2019-04-16T04:21:31.565Z,1013.97
2019-04-16T04:22:32.510Z,1013.99
2019-04-16T04:23:31.392Z,1014.03
2019-04-16T04:24:32.116Z,1014.04
2019-04-16T04:25:36.066Z,1014.06
2019-04-16T04:26:31.143Z,1014.06
2019-04-16T04:27:31.048Z,1014.08
2019-04-16T04:28:30.959Z,1014.10
2019-04-16T04:29:30.878Z,1014.10
2019-04-16T04:30:30.942Z,1014.09
2019-04-16T04:31:32.309Z,1014.08
2019-04-16T04:32:32.437Z,1014.07
2019-04-16T04:33:31.559Z,1014.10
2019-04-16T04:34:30.440Z,1014.11
2019-04-16T04:35:30.446Z,1014.06
2019-04-16T04:36:30.283Z,1014.11
2019-04-16T04:37:32.050Z,1014.08
2019-04-16T04:38:30.097Z,1014.07
2019-04-16T04:39:30.019Z,1014.09
2019-04-16T04:41:29.906Z,1014.09
2019-04-16T04:42:29.833Z,1014.05
2019-04-16T04:43:09.933Z,1014.10
2019-04-16T04:43:32.022Z,1014.05
2019-04-16T04:44:29.585Z,1014.03
2019-04-16T04:45:30.518Z,1014.07
2019-04-16T04:46:29.415Z,1014.05
2019-04-16T04:47:30.426Z,1014.04
2019-04-16T04:48:29.243Z,1014.01
2019-04-16T04:49:31.098Z,1014.01
2019-04-16T04:50:29.058Z,1014.00
2019-04-16T04:51:29.127Z,1014.06
2019-04-16T04:52:29.479Z,1014.06
2019-04-16T04:53:31.437Z,1014.04
2019-04-16T04:54:31.434Z,1014.08
2019-04-16T04:55:28.630Z,1014.08
2019-04-16T04:56:28.665Z,1014.06
2019-04-16T04:57:31.142Z,1014.09
2019-04-16T04:58:28.367Z,1014.12
2019-04-16T04:59:28.282Z,1014.16
2019-04-16T05:00:28.200Z,1014.14
2019-04-16T05:01:28.130Z,1014.14
2019-04-16T05:02:28.031Z,1014.18
2019-04-16T05:03:27.944Z,1014.17
2019-04-16T05:04:27.849Z,1014.13
2019-04-16T05:05:27.771Z,1014.13
2019-04-16T05:06:28.020Z,1014.15
2019-04-16T05:07:29.336Z,1014.18
2019-04-16T05:08:28.647Z,1014.17
2019-04-16T05:09:29.324Z,1014.18
2019-04-16T05:10:27.331Z,1014.20
2019-04-16T05:11:27.265Z,1014.22
2019-04-16T05:12:28.013Z,1014.22
2019-04-16T05:13:27.077Z,1014.25
2019-04-16T05:14:28.435Z,1014.26
2019-04-16T05:15:29.443Z,1014.27
2019-04-16T05:16:27.818Z,1014.25
2019-04-16T05:17:26.736Z,1014.27
2019-04-16T05:18:26.659Z,1014.27
2019-04-16T05:19:26.570Z,1014.31
2019-04-16T05:20:29.642Z,1014.29
2019-04-16T05:21:26.397Z,1014.34
2019-04-16T05:22:26.493Z,1014.32
2019-04-16T05:23:26.255Z,1014.35
2019-04-16T05:24:28.883Z,1014.34
2019-04-16T05:25:26.049Z,1014.35
2019-04-16T05:26:25.978Z,1014.39
2019-04-16T05:27:29.091Z,1014.39
2019-04-16T05:28:25.828Z,1014.42
2019-04-16T05:29:25.703Z,1014.40
2019-04-16T05:30:25.619Z,1014.42
2019-04-16T05:31:26.191Z,1014.39
2019-04-16T05:32:26.020Z,1014.43
2019-04-16T05:33:25.362Z,1014.43
2019-04-16T05:34:25.295Z,1014.46
2019-04-16T05:35:25.187Z,1014.43
2019-04-16T05:36:25.095Z,1014.42
2019-04-16T05:37:25.030Z,1014.44
2019-04-16T05:38:24.924Z,1014.46
2019-04-16T05:39:28.340Z,1014.48
2019-04-16T05:40:28.064Z,1014.49
2019-04-16T05:41:24.666Z,1014.50
2019-04-16T05:42:26.204Z,1014.54
2019-04-16T05:43:24.499Z,1014.53
2019-04-16T05:44:24.411Z,1014.51
2019-04-16T05:45:24.330Z,1014.51
2019-04-16T05:46:24.258Z,1014.50
2019-04-16T05:47:24.170Z,1014.48
2019-04-16T05:48:24.069Z,1014.46
2019-04-16T05:49:25.876Z,1014.51
2019-04-16T05:50:28.750Z,1014.46
2019-04-16T05:51:23.954Z,1014.48
2019-04-16T05:52:23.747Z,1014.55
2019-04-16T05:53:23.658Z,1014.59
2019-04-16T05:54:23.556Z,1014.66
2019-04-16T05:55:23.469Z,1014.61
2019-04-16T05:56:24.724Z,1014.63
2019-04-16T05:57:26.125Z,1014.65
2019-04-16T05:58:24.073Z,1014.65
2019-04-16T05:59:23.134Z,1014.64
2019-04-16T06:00:23.051Z,1014.67
2019-04-16T06:01:22.963Z,1014.68
2019-04-16T06:02:23.018Z,1014.64
2019-04-16T06:03:23.516Z,1014.70
2019-04-16T06:04:24.973Z,1014.71
2019-04-16T06:05:26.810Z,1014.74
2019-04-16T06:06:22.672Z,1014.78
2019-04-16T06:07:22.481Z,1014.81
2019-04-16T06:08:22.381Z,1014.73
2019-04-16T06:09:22.294Z,1014.82
2019-04-16T06:10:22.220Z,1014.77
2019-04-16T06:11:29.853Z,1014.77
2019-04-16T06:12:22.081Z,1014.80
2019-04-16T06:13:21.974Z,1014.77
2019-04-16T06:14:21.884Z,1014.77
2019-04-16T06:15:22.573Z,1014.78
2019-04-16T06:16:25.406Z,1014.78
2019-04-16T06:17:21.649Z,1014.79
2019-04-16T06:18:21.554Z,1014.77
2019-04-16T06:19:21.470Z,1014.77
2019-04-16T06:20:22.038Z,1014.83
2019-04-16T06:21:25.040Z,1014.83
2019-04-16T06:22:21.247Z,1014.86
2019-04-16T06:23:21.148Z,1014.84
2019-04-16T06:24:21.279Z,1014.85
2019-04-16T06:25:20.984Z,1014.85
2019-04-16T06:26:21.911Z,1014.85
2019-04-16T06:27:20.832Z,1014.84
2019-04-16T06:28:20.745Z,1014.77
2019-04-16T06:29:20.659Z,1014.71
2019-04-16T06:30:20.578Z,1014.75
2019-04-16T06:31:20.504Z,1014.74
2019-04-16T06:32:20.429Z,1014.80
2019-04-16T06:33:20.350Z,1014.77
2019-04-16T06:34:23.436Z,1014.80
2019-04-16T06:35:20.274Z,1014.84
2019-04-16T06:36:20.107Z,1014.86
2019-04-16T06:37:21.583Z,1014.85
2019-04-16T06:38:19.941Z,1014.86
2019-04-16T06:39:19.856Z,1014.88
2019-04-16T06:40:19.775Z,1014.91
2019-04-16T06:41:19.697Z,1014.88
2019-04-16T06:42:22.284Z,1014.92
2019-04-16T06:43:19.546Z,1014.89
2019-04-16T06:44:19.466Z,1014.94
2019-04-16T06:45:19.676Z,1014.99
2019-04-16T06:46:19.316Z,1015.00
2019-04-16T06:47:19.213Z,1015.03
2019-04-16T06:48:19.166Z,1014.98
2019-04-16T06:49:19.236Z,1015.00
2019-04-16T06:50:30.557Z,1015.05
2019-04-16T06:51:18.900Z,1015.06
2019-04-16T06:52:18.982Z,1015.01
2019-04-16T06:53:19.876Z,1014.97
2019-04-16T06:54:18.664Z,1015.01
2019-04-16T06:55:18.575Z,1014.99
2019-04-16T06:56:20.236Z,1015.08
2019-04-16T06:57:18.419Z,1015.09
2019-04-16T06:58:18.468Z,1015.04
2019-04-16T06:59:18.260Z,1015.03
2019-04-16T07:00:18.184Z,1015.06
2019-04-16T07:01:18.105Z,1015.08
2019-04-16T07:02:18.023Z,1015.08
2019-04-16T07:03:17.958Z,1015.12
2019-04-16T07:04:17.869Z,1015.08
2019-04-16T07:05:17.995Z,1015.11
2019-04-16T07:06:17.704Z,1015.12
2019-04-16T07:07:17.625Z,1015.16
2019-04-16T07:08:18.421Z,1015.16
2019-04-16T07:09:17.486Z,1015.16
2019-04-16T07:10:17.390Z,1015.13
2019-04-16T07:11:17.328Z,1015.10
2019-04-16T07:12:17.238Z,1015.12
2019-04-16T07:13:17.230Z,1015.11
2019-04-16T07:14:17.543Z,1015.09
2019-04-16T07:15:22.569Z,1015.12
2019-04-16T07:16:16.930Z,1015.07
2019-04-16T07:17:18.276Z,1015.08
2019-04-16T07:18:16.783Z,1015.09
2019-04-16T07:19:17.693Z,1015.05
2019-04-16T07:20:16.617Z,1015.06
2019-04-16T07:21:17.584Z,1015.02
2019-04-16T07:22:20.768Z,1015.01
2019-04-16T07:23:16.471Z,1014.99
2019-04-16T07:24:16.384Z,1015.00
2019-04-16T07:25:16.630Z,1014.98
2019-04-16T07:26:16.413Z,1014.99
2019-04-16T07:27:19.647Z,1014.97
2019-04-16T07:28:16.016Z,1014.99
2019-04-16T07:29:16.013Z,1015.02
2019-04-16T07:30:19.675Z,1015.03
2019-04-16T07:31:31.760Z,1015.01
2019-04-16T07:32:15.787Z,1015.04
2019-04-16T07:33:15.628Z,1015.02
2019-04-16T07:34:15.550Z,1015.07
2019-04-16T07:35:15.462Z,1015.08
2019-04-16T07:36:15.388Z,1015.08
2019-04-16T07:37:15.321Z,1015.06
2019-04-16T07:38:15.252Z,1015.10
2019-04-16T07:39:28.694Z,1015.13
2019-04-16T07:40:15.089Z,1015.14
2019-04-16T07:41:17.009Z,1015.15
2019-04-16T07:42:21.211Z,1015.14
2019-04-16T07:43:15.965Z,1015.10
2019-04-16T07:44:14.782Z,1015.13
2019-04-16T07:45:14.708Z,1015.19
2019-04-16T07:46:14.638Z,1015.23
2019-04-16T07:47:19.832Z,1015.22
2019-04-16T07:48:14.482Z,1015.31
2019-04-16T07:49:14.431Z,1015.40
2019-04-16T07:50:14.329Z,1015.46
2019-04-16T07:51:14.293Z,1015.57
2019-04-16T07:52:14.195Z,1015.55
2019-04-16T07:53:14.488Z,1015.34
2019-04-16T07:54:14.055Z,1015.45
2019-04-16T07:55:13.957Z,1015.58
2019-04-16T07:56:13.888Z,1016.37
2019-04-16T07:57:13.812Z,1016.63
2019-04-16T07:58:13.743Z,1016.90
2019-04-16T07:59:13.670Z,1017.04
2019-04-16T08:00:13.591Z,1017.37
2019-04-16T08:01:16.268Z,1017.85
2019-04-16T08:02:13.437Z,1017.72
2019-04-16T08:03:13.364Z,1018.05
2019-04-16T08:04:13.297Z,1018.71
2019-04-16T08:05:13.209Z,1019.95
2019-04-16T08:06:14.436Z,1020.42
2019-04-16T08:07:13.061Z,1020.66
2019-04-16T08:08:12.987Z,1021.28
2019-04-16T08:09:12.937Z,1021.81
2019-04-16T08:10:12.840Z,1022.14
2019-04-16T08:11:12.766Z,1022.38
2019-04-16T08:12:28.969Z,1022.41
2019-04-16T08:13:14.182Z,1022.07
2019-04-16T08:14:14.606Z,1023.00
2019-04-16T08:15:15.286Z,1024.07
2019-04-16T08:16:12.399Z,1024.68
2019-04-16T08:17:12.321Z,1025.17
2019-04-16T08:18:12.258Z,1025.88
2019-04-16T08:19:15.027Z,1026.42
2019-04-16T08:20:12.102Z,1026.99
2019-04-16T08:21:12.530Z,1027.79
2019-04-16T08:22:15.564Z,1028.49
2019-04-16T08:23:11.883Z,1029.34
2019-04-16T08:24:11.826Z,1029.96
2019-04-16T08:25:11.742Z,1030.54
2019-04-16T08:26:13.680Z,1030.97
2019-04-16T08:27:18.046Z,1030.73
2019-04-16T08:28:11.528Z,1030.50
2019-04-16T08:29:11.462Z,1030.39
2019-04-16T08:30:11.387Z,1031.36
2019-04-16T08:31:12.729Z,1031.56
2019-04-16T08:32:12.834Z,1031.78
2019-04-16T08:33:11.618Z,1032.04
2019-04-16T08:34:11.100Z,1032.01
2019-04-16T08:35:11.018Z,1031.63
2019-04-16T08:36:10.972Z,1029.50
2019-04-16T08:37:10.877Z,1028.24
2019-04-16T08:38:10.806Z,1028.78
2019-04-16T08:39:10.748Z,1029.49
2019-04-16T08:40:12.462Z,1030.77
2019-04-16T08:41:12.731Z,1031.63
2019-04-16T08:42:10.524Z,1031.37
2019-04-16T08:43:10.452Z,1030.90
2019-04-16T08:44:10.811Z,1030.23
2019-04-16T08:45:10.314Z,1028.31
2019-04-16T08:46:11.527Z,1027.06
2019-04-16T08:47:12.105Z,1026.13
2019-04-16T08:48:10.299Z,1025.99
2019-04-16T08:49:10.034Z,1026.47
2019-04-16T08:50:11.781Z,1026.34
2019-04-16T08:51:09.879Z,1024.80
2019-04-16T08:52:10.933Z,1022.84
2019-04-16T08:53:13.539Z,1023.49
2019-04-16T08:54:09.705Z,1023.88
2019-04-16T08:55:09.594Z,1024.14
2019-04-16T08:56:09.532Z,1022.77
2019-04-16T08:57:09.453Z,1023.49
2019-04-16T08:58:12.338Z,1022.82
2019-04-16T08:59:10.724Z,1022.22
2019-04-16T09:00:14.167Z,1021.96
2019-04-16T09:01:09.173Z,1022.23
2019-04-16T09:02:09.102Z,1022.00
2019-04-16T09:03:09.039Z,1021.67
2019-04-16T09:04:08.959Z,1020.88
2019-04-16T09:05:11.459Z,1020.31
2019-04-16T09:06:12.792Z,1019.80
2019-04-16T09:07:12.219Z,1019.10
2019-04-16T09:08:13.048Z,1018.19
2019-04-16T09:09:14.343Z,1017.77
2019-04-16T09:10:17.107Z,1017.74
2019-04-16T09:11:21.780Z,1017.73
2019-04-16T09:12:09.660Z,1017.33
2019-04-16T09:13:08.404Z,1017.09
2019-04-16T09:14:08.594Z,1017.10
2019-04-16T09:15:08.204Z,1016.73
2019-04-16T09:16:10.608Z,1015.98
2019-04-16T09:17:09.757Z,1015.68
2019-04-16T09:18:07.977Z,1015.56
2019-04-16T09:19:07.922Z,1015.12
2019-04-16T09:20:07.866Z,1015.00
2019-04-16T09:21:10.579Z,1014.91
2019-04-16T09:22:07.700Z,1014.76
2019-04-16T09:23:07.633Z,1014.57
2019-04-16T09:24:09.393Z,1014.60
2019-04-16T09:25:12.494Z,1014.67
2019-04-16T09:26:14.115Z,1014.51
2019-04-16T09:27:07.355Z,1014.46
2019-04-16T09:28:09.890Z,1014.44
2019-04-16T09:29:09.941Z,1014.43
2019-04-16T09:30:09.853Z,1014.46
2019-04-16T09:31:07.076Z,1014.48
2019-04-16T09:32:07.000Z,1014.42
2019-04-16T09:33:06.931Z,1014.44
2019-04-16T09:34:07.104Z,1014.47
2019-04-16T09:35:10.091Z,1014.51
2019-04-16T09:36:06.725Z,1014.48
2019-04-16T09:37:06.665Z,1014.47
2019-04-16T09:38:09.328Z,1014.51
2019-04-16T09:39:06.520Z,1014.60
2019-04-16T09:40:16.704Z,1014.62
2019-04-16T09:41:06.380Z,1014.57
2019-04-16T09:42:06.309Z,1014.58
2019-04-16T09:43:16.583Z,1014.48
2019-04-16T09:44:06.172Z,1014.51
2019-04-16T09:45:06.125Z,1014.59
2019-04-16T09:46:10.487Z,1014.54
2019-04-16T09:47:05.971Z,1014.48
2019-04-16T09:48:05.898Z,1014.47
2019-04-16T09:49:06.227Z,1014.50
2019-04-16T09:50:09.650Z,1014.47
2019-04-16T09:51:05.698Z,1014.50
2019-04-16T09:52:05.631Z,1014.45
2019-04-16T09:53:05.557Z,1014.54
2019-04-16T09:54:05.486Z,1014.53
2019-04-16T09:55:05.482Z,1014.54
2019-04-16T09:56:05.350Z,1014.50
2019-04-16T09:57:05.294Z,1014.61
2019-04-16T09:58:06.936Z,1014.64
2019-04-16T09:59:05.153Z,1014.66
2019-04-16T10:00:08.198Z,1014.62
2019-04-16T10:01:05.017Z,1014.60
2019-04-16T10:02:04.943Z,1014.66
2019-04-16T10:03:04.886Z,1014.68
2019-04-16T10:04:04.813Z,1014.67
2019-04-16T10:05:04.773Z,1014.68
2019-04-16T10:06:05.753Z,1014.65
2019-04-16T10:07:04.624Z,1014.62
2019-04-16T10:08:04.532Z,1014.69
2019-04-16T10:09:04.467Z,1014.68
2019-04-16T10:10:04.419Z,1014.67
2019-04-16T10:11:06.271Z,1014.69
2019-04-16T10:12:04.935Z,1014.70
2019-04-16T10:13:04.221Z,1014.66
2019-04-16T10:14:04.125Z,1014.73
2019-04-16T10:15:04.098Z,1014.75
2019-04-16T10:16:04.020Z,1014.69
2019-04-16T10:17:03.925Z,1014.65
2019-04-16T10:18:03.872Z,1014.62
2019-04-16T10:19:07.873Z,1014.68
2019-04-16T10:20:03.730Z,1014.70
2019-04-16T10:21:03.667Z,1014.72
2019-04-16T10:22:03.615Z,1014.72
2019-04-16T10:23:03.511Z,1014.73
2019-04-16T10:24:03.445Z,1014.77
2019-04-16T10:25:03.387Z,1014.75
2019-04-16T10:26:03.321Z,1014.74
2019-04-16T10:27:04.373Z,1014.77
2019-04-16T10:28:04.963Z,1014.70
2019-04-16T10:29:05.864Z,1014.71
2019-04-16T10:30:03.034Z,1014.77
2019-04-16T10:31:03.382Z,1014.72
2019-04-16T10:32:02.899Z,1014.82
2019-04-16T10:33:02.856Z,1014.80
2019-04-16T10:34:02.800Z,1014.80
2019-04-16T10:35:02.699Z,1014.81
2019-04-16T10:36:04.560Z,1014.93
2019-04-16T10:37:02.567Z,1014.98
2019-04-16T10:38:02.496Z,1015.07
2019-04-16T10:39:02.426Z,1015.20
2019-04-16T10:40:04.890Z,1015.24
2019-04-16T10:41:02.314Z,1015.35
2019-04-16T10:42:02.231Z,1015.35
2019-04-16T10:43:02.178Z,1015.41
2019-04-16T10:44:02.099Z,1015.36
2019-04-16T10:45:02.028Z,1015.41
2019-04-16T10:46:01.984Z,1015.42
2019-04-16T10:47:01.922Z,1015.33
2019-04-16T10:48:01.837Z,1015.25
2019-04-16T10:49:01.784Z,1015.20
2019-04-16T10:50:01.693Z,1015.19
2019-04-16T10:51:01.637Z,1015.18
2019-04-16T10:52:01.544Z,1015.20
2019-04-16T10:53:01.506Z,1015.15
2019-04-16T10:54:01.427Z,1015.11
2019-04-16T10:55:01.344Z,1015.18
2019-04-16T10:56:01.295Z,1015.14
2019-04-16T10:57:01.224Z,1015.17
2019-04-16T10:58:01.418Z,1015.12
2019-04-16T10:59:01.065Z,1015.17
2019-04-16T11:00:01.048Z,1015.12
2019-04-16T11:01:01.172Z,1015.02
2019-04-16T11:02:00.896Z,1015.02
2019-04-16T11:03:00.830Z,1014.97
2019-04-16T11:04:00.738Z,1015.01
2019-04-16T11:05:03.048Z,1015.11
2019-04-16T11:06:00.608Z,1015.19
2019-04-16T11:07:00.520Z,1015.13
2019-04-16T11:08:00.708Z,1015.08
2019-04-16T11:09:00.389Z,1015.13
2019-04-16T11:10:00.325Z,1015.14
2019-04-16T11:11:00.274Z,1015.02
2019-04-16T11:12:04.809Z,1014.99
2019-04-16T11:13:00.148Z,1014.87
2019-04-16T11:14:00.674Z,1014.83
2019-04-16T11:14:59.982Z,1014.70
2019-04-16T11:15:59.926Z,1014.68
2019-04-16T11:16:59.893Z,1014.70
2019-04-16T11:18:00.797Z,1014.56
2019-04-16T11:18:59.721Z,1014.50
2019-04-16T11:20:00.176Z,1014.43
2019-04-16T11:20:59.677Z,1014.41
2019-04-16T11:21:59.909Z,1014.32
2019-04-16T11:22:59.436Z,1014.30
2019-04-16T11:23:59.366Z,1014.25
2019-04-16T11:24:59.315Z,1014.20
2019-04-16T11:25:59.242Z,1014.18
2019-04-16T11:26:59.158Z,1014.15
2019-04-16T11:27:59.098Z,1014.17
2019-04-16T11:28:59.022Z,1014.12
2019-04-16T11:29:58.954Z,1014.18
2019-04-16T11:30:58.939Z,1014.21
2019-04-16T11:31:58.820Z,1014.02
2019-04-16T11:32:58.774Z,1014.00
2019-04-16T11:33:58.684Z,1013.98
2019-04-16T11:34:58.629Z,1013.93
2019-04-16T11:35:58.571Z,1013.84
2019-04-16T11:36:58.762Z,1013.91
2019-04-16T11:37:58.437Z,1013.88
2019-04-16T11:38:58.391Z,1013.78
2019-04-16T11:39:58.303Z,1013.78
2019-04-16T11:40:58.208Z,1013.77
2019-04-16T11:41:58.155Z,1013.75
2019-04-16T11:42:58.175Z,1013.67
2019-04-16T11:43:58.017Z,1013.72
2019-04-16T11:44:57.940Z,1013.64
2019-04-16T11:45:57.878Z,1013.60
2019-04-16T11:46:57.816Z,1013.56
2019-04-16T11:47:57.774Z,1013.62
2019-04-16T11:48:57.678Z,1013.60
2019-04-16T11:49:57.620Z,1013.55
2019-04-16T11:50:57.544Z,1013.57
2019-04-16T11:51:57.481Z,1013.59
2019-04-16T11:52:58.473Z,1013.56
2019-04-16T11:53:57.315Z,1013.61
2019-04-16T11:55:00.641Z,1013.55
2019-04-16T11:55:57.183Z,1013.54
2019-04-16T11:56:59.250Z,1013.62
2019-04-16T11:57:57.045Z,1013.49
2019-04-16T11:58:57.593Z,1013.50
2019-04-16T12:00:06.400Z,1013.47
2019-04-16T12:00:56.859Z,1013.50
2019-04-16T12:01:56.798Z,1013.46
2019-04-16T12:02:56.727Z,1013.42
2019-04-16T12:03:56.707Z,1013.43
2019-04-16T12:04:59.239Z,1013.45